Picabo, Idaho
Current Conditions -  °F | °C
As of 8:47 AM on Thursday 18 Dec 2014 (Local Time) from KSUN Reporting Station
Broken Clouds Broken Clouds  
Wind Chill: 19°   Ceiling: 3000
Heat Index: 27°   Visibility: 10mi
Dew Point: 21°   Wind: 7mph
Humidity: 80%   Direction: 310°NW
Pressure: 30.11"   Gusts: NA
Location:  43.31°N, 114.07°W
Report Text: KSUN 181547Z 31006KT 10SM BKN030 M03/M06 A3011
Loading
Personal Weather Stations






























Interactive Weather Map New forecast layout! Learn more

10-Day Weather Forecast

Advertisements
Track Severe Weather on mobile